Time;durP1;ratioP1;P1;durP2;ratioP2;P2;SDS_P1;SDS_P2;PMS_P1;PMS_P2;Temp;Humidity;BMP_temperature;BMP_pressure;BME280_temperature;BME280_humidity;BME280_pressure;Samples;Min_cycle;Max_cycle;Signal;HPM_P1;HPM_P2
2022/01/14 00:01:24;;;;;;;27.40;13.32;;;0.70;81.90;;;;;;7374944;19;20143;-33
2022/01/14 00:03:56;;;;;;;28.33;14.25;;;0.70;82.10;;;;;;7379783;19;20132;-32
2022/01/14 00:06:25;;;;;;;18.67;12.40;;;0.70;82.20;;;;;;7369402;19;20159;-33
2022/01/14 00:09:03;;;;;;;24.85;13.82;;;0.70;82.90;;;;;;7371877;19;20131;-33
2022/01/14 00:11:33;;;;;;;23.65;13.45;;;0.70;82.10;;;;;;7372212;19;20177;-32
2022/01/14 00:14:20;;;;;;;22.52;12.43;;;0.80;82.10;;;;;;7378242;19;20124;-33
2022/01/14 00:16:53;;;;;;;21.02;13.00;;;0.80;81.80;;;;;;7375913;19;20135;-33
2022/01/14 00:19:25;;;;;;;25.85;14.25;;;0.70;81.60;;;;;;7369921;19;20135;-33
2022/01/14 00:21:55;;;;;;;25.50;14.40;;;0.70;81.80;;;;;;7375432;19;20161;-33
2022/01/14 00:31:37;;;;;;;26.60;14.00;;;0.70;82.20;;;;;;7375304;19;20159;-33
2022/01/14 00:32:49;;;;;;;24.20;13.13;;;0.90;81.50;;;;;;7374113;19;20598;-33
2022/01/14 00:35:21;;;;;;;32.28;13.27;;;0.90;81.30;;;;;;7372553;19;20131;-33
2022/01/14 00:37:51;;;;;;;31.67;15.35;;;0.90;81.10;;;;;;7376059;19;20155;-33
2022/01/14 00:40:21;;;;;;;25.80;13.90;;;0.90;80.90;;;;;;7378039;19;20598;-33
2022/01/14 00:42:54;;;;;;;33.38;18.20;;;0.80;81.40;;;;;;7373786;19;23852;-33
2022/01/14 00:45:24;;;;;;;31.48;14.60;;;0.80;82.10;;;;;;7368915;19;20128;-32
2022/01/14 00:47:56;;;;;;;36.40;15.80;;;0.80;81.70;;;;;;7374180;19;20152;-33
2022/01/14 00:50:28;;;;;;;27.33;14.98;;;0.90;81.30;;;;;;7368198;19;20128;-42
2022/01/14 00:52:58;;;;;;;27.27;15.77;;;0.90;81.10;;;;;;7372465;19;20527;-42
2022/01/14 00:55:40;;;;;;;22.98;14.23;;;0.90;81.10;;;;;;7378733;19;20131;-42
2022/01/14 01:00:53;;;;;;;29.33;14.77;;;0.80;81.00;;;;;;7375499;19;20203;-42
2022/01/14 01:03:23;;;;;;;34.63;17.00;;;0.70;82.00;;;;;;7374630;19;20128;-42
2022/01/14 01:05:55;;;;;;;28.90;15.52;;;0.70;81.60;;;;;;7374218;19;20174;-42
2022/01/14 01:08:27;;;;;;;22.45;15.43;;;0.70;81.60;;;;;;7375780;19;20142;-42
2022/01/14 01:10:57;;;;;;;27.27;16.02;;;0.70;81.50;;;;;;7373665;19;20591;-42
2022/01/14 01:13:30;;;;;;;27.27;16.65;;;0.70;81.50;;;;;;7367702;19;20119;-42
2022/01/14 01:16:00;;;;;;;30.58;16.30;;;0.70;81.80;;;;;;7372188;19;20229;-41
2022/01/14 01:18:31;;;;;;;25.70;16.02;;;0.70;81.50;;;;;;7379339;19;20135;-43
2022/01/14 01:21:04;;;;;;;27.20;16.05;;;0.70;81.40;;;;;;7376424;19;20161;-33
2022/01/14 01:23:34;;;;;;;30.55;16.75;;;0.70;81.20;;;;;;7378033;19;20578;-33
2022/01/14 01:26:15;;;;;;;26.13;14.60;;;0.70;81.50;;;;;;7378369;19;20158;-33
2022/01/14 01:28:59;;;;;;;26.63;16.23;;;0.70;81.40;;;;;;7370246;19;20135;-32
2022/01/14 01:31:39;;;;;;;30.77;16.88;;;0.60;81.50;;;;;;7369680;19;20130;-32
2022/01/14 01:34:10;;;;;;;26.20;16.08;;;0.60;81.90;;;;;;7372087;19;20890;-32
2022/01/14 01:36:45;;;;;;;30.25;16.38;;;0.60;81.70;;;;;;7367315;19;20138;-32
2022/01/14 01:39:18;;;;;;;33.20;15.75;;;0.60;81.60;;;;;;7371368;19;20144;-33
2022/01/14 01:41:49;;;;;;;27.13;17.00;;;0.60;81.80;;;;;;7371086;19;20135;-33
2022/01/14 01:44:22;;;;;;;28.10;15.00;;;0.50;82.10;;;;;;7374815;19;20948;-32
2022/01/14 01:46:53;;;;;;;26.08;15.73;;;0.40;82.30;;;;;;7366675;19;20215;-32
2022/01/14 01:49:27;;;;;;;29.98;14.85;;;0.40;82.50;;;;;;7371130;19;20167;-32
2022/01/14 01:52:00;;;;;;;28.88;15.30;;;0.40;82.40;;;;;;7363975;19;20132;-32
2022/01/14 01:54:31;;;;;;;27.63;16.45;;;0.40;82.70;;;;;;7368268;19;20752;-32
2022/01/14 01:57:01;;;;;;;28.38;17.33;;;0.30;83.00;;;;;;7371218;19;20142;-33
2022/01/14 01:59:31;;;;;;;26.88;15.00;;;0.30;83.30;;;;;;7371171;19;20143;-33
2022/01/14 02:02:02;;;;;;;29.67;16.13;;;0.40;83.20;;;;;;7367630;19;20127;-33
2022/01/14 02:04:34;;;;;;;30.30;15.95;;;0.50;83.10;;;;;;7369906;19;20123;-32
2022/01/14 02:07:06;;;;;;;31.85;16.77;;;0.50;82.90;;;;;;7371967;19;20158;-33
2022/01/14 02:09:36;;;;;;;25.08;15.45;;;0.50;82.60;;;;;;7369148;19;20123;-32
2022/01/14 02:12:09;;;;;;;28.10;14.65;;;0.50;82.60;;;;;;7359860;19;20159;-33
2022/01/14 02:14:57;;;;;;;30.27;15.93;;;0.50;82.60;;;;;;7368623;19;20199;-33
2022/01/14 02:17:52;;;;;;;30.55;15.35;;;0.50;82.30;;;;;;7373550;19;20137;-33
2022/01/14 02:23:17;;;;;;;31.70;15.63;;;0.50;82.50;;;;;;7372807;19;20148;-32
2022/01/14 02:25:48;;;;;;;29.42;16.33;;;0.50;82.40;;;;;;7370806;19;20711;-32
2022/01/14 02:28:20;;;;;;;32.70;15.25;;;0.40;82.50;;;;;;7373656;19;20135;-33
2022/01/14 02:30:52;;;;;;;29.17;16.38;;;0.40;82.60;;;;;;7373889;19;20271;-42
2022/01/14 02:33:22;;;;;;;30.80;17.25;;;0.40;82.80;;;;;;7369398;19;20132;-43
2022/01/14 02:35:55;;;;;;;27.80;15.73;;;0.40;82.80;;;;;;7374164;19;20163;-43
2022/01/14 02:38:25;;;;;;;29.83;16.40;;;0.40;82.80;;;;;;7372694;19;20143;-42
2022/01/14 02:40:57;;;;;;;28.98;15.32;;;0.30;83.10;;;;;;7373332;19;20150;-42
2022/01/14 02:43:27;;;;;;;30.55;16.15;;;0.30;83.00;;;;;;7365495;19;20132;-43
2022/01/14 02:45:57;;;;;;;32.28;18.15;;;0.40;83.10;;;;;;7371485;19;20128;-43
2022/01/14 02:48:29;;;;;;;31.45;15.55;;;0.30;82.60;;;;;;7374510;19;20139;-44
2022/01/14 02:51:10;;;;;;;30.23;17.23;;;0.30;82.90;;;;;;7380652;19;20131;-42
2022/01/14 02:53:56;;;;;;;32.85;15.13;;;0.30;82.90;;;;;;7371746;19;20124;-43
2022/01/14 02:56:31;;;;;;;30.00;14.73;;;0.30;83.80;;;;;;7374583;19;20200;-42
2022/01/14 02:59:02;;;;;;;30.63;15.35;;;0.20;83.30;;;;;;7377658;19;20135;-43
2022/01/14 03:01:32;;;;;;;32.08;15.55;;;0.20;83.40;;;;;;7379220;19;20135;-33
2022/01/14 03:04:06;;;;;;;28.58;14.60;;;0.20;83.20;;;;;;7379062;19;20142;-33
2022/01/14 03:06:38;;;;;;;29.75;15.68;;;0.30;83.80;;;;;;7377906;19;20139;-33
2022/01/14 03:09:08;;;;;;;27.90;16.35;;;0.30;83.30;;;;;;7379792;19;20136;-33
2022/01/14 03:11:42;;;;;;;32.83;16.42;;;0.30;83.40;;;;;;7368346;19;20166;-33
2022/01/14 03:14:13;;;;;;;32.55;15.07;;;0.20;83.70;;;;;;7372936;19;20484;-33
2022/01/14 03:16:48;;;;;;;28.17;15.05;;;0.30;83.80;;;;;;7379188;19;20135;-33
2022/01/14 03:19:21;;;;;;;27.25;15.73;;;0.30;83.30;;;;;;7376203;19;20497;-33
2022/01/14 03:22:04;;;;;;;31.08;17.27;;;0.30;83.10;;;;;;7380173;19;20136;-33
2022/01/14 03:27:16;;;;;;;27.70;15.95;;;0.30;83.30;;;;;;7373459;19;20127;-33
2022/01/14 03:29:45;;;;;;;36.08;18.60;;;0.10;83.00;;;;;;7378711;19;20154;-42
2022/01/14 03:32:15;;;;;;;32.25;17.60;;;0.30;82.70;;;;;;7375033;19;20593;-43
2022/01/14 03:34:47;;;;;;;26.90;14.63;;;0.30;82.90;;;;;;7377645;19;20220;-43
2022/01/14 03:37:19;;;;;;;27.92;14.77;;;0.30;82.90;;;;;;7378467;19;20147;-43
2022/01/14 03:39:49;;;;;;;33.28;15.05;;;0.30;83.20;;;;;;7378879;19;20132;-43
2022/01/14 03:42:21;;;;;;;27.25;15.85;;;0.20;83.40;;;;;;7378159;19;20135;-43
2022/01/14 03:44:50;;;;;;;31.13;16.13;;;0.20;83.30;;;;;;7376081;19;20594;-43
2022/01/14 03:47:20;;;;;;;30.80;15.40;;;0.20;83.70;;;;;;7376681;19;20224;-43
2022/01/14 03:49:50;;;;;;;25.00;14.52;;;0.20;83.50;;;;;;7378432;19;20143;-42
2022/01/14 03:52:22;;;;;;;27.48;15.60;;;0.20;83.30;;;;;;7375418;19;20131;-43
2022/01/14 03:54:54;;;;;;;28.42;15.95;;;0.30;83.10;;;;;;7372797;19;20180;-43
2022/01/14 03:57:24;;;;;;;32.60;15.35;;;0.20;83.10;;;;;;7367029;19;20139;-43
2022/01/14 03:59:53;;;;;;;25.38;15.40;;;0.20;83.40;;;;;;7374261;19;20135;-43
2022/01/14 04:02:23;;;;;;;22.55;13.82;;;0.20;83.50;;;;;;7369802;19;20617;-42
2022/01/14 04:04:52;;;;;;;32.30;15.88;;;0.20;83.30;;;;;;7378337;19;20742;-43
2022/01/14 04:07:24;;;;;;;25.98;15.85;;;0.20;84.50;;;;;;7370427;19;20127;-43
2022/01/14 04:09:54;;;;;;;26.40;14.68;;;0.20;83.70;;;;;;7379584;19;20649;-43
2022/01/14 04:12:43;;;;;;;31.33;16.55;;;0.20;83.50;;;;;;7366578;19;20155;-42
2022/01/14 04:17:57;;;;;;;32.38;16.60;;;0.10;83.40;;;;;;7377462;19;20131;-43
2022/01/14 04:20:26;;;;;;;30.33;16.60;;;0.10;83.10;;;;;;7374778;19;20529;-43
2022/01/14 04:22:59;;;;;;;34.17;17.38;;;0.10;82.80;;;;;;7378209;19;20131;-43
2022/01/14 04:25:29;;;;;;;30.60;17.20;;;0.10;83.00;;;;;;7371548;19;20138;-43
2022/01/14 04:27:59;;;;;;;32.53;16.48;;;0.10;82.80;;;;;;7373665;19;20134;-43
2022/01/14 04:30:28;;;;;;;28.15;16.38;;;0.00;82.70;;;;;;7374098;19;20511;-43
2022/01/14 04:32:58;;;;;;;30.17;17.73;;;0.00;82.80;;;;;;7376936;19;20313;-42
2022/01/14 04:35:27;;;;;;;36.22;18.13;;;0.00;82.50;;;;;;7375017;19;20124;-43
2022/01/14 04:38:04;;;;;;;31.58;16.65;;;0.00;82.60;;;;;;7378771;19;20625;-43
2022/01/14 04:40:35;;;;;;;29.08;18.52;;;0.00;82.40;;;;;;7374683;19;20139;-42
2022/01/14 04:43:06;;;;;;;31.92;17.40;;;0.10;82.10;;;;;;7374255;19;20135;-43
2022/01/14 04:45:54;;;;;;;32.40;17.77;;;0.00;82.00;;;;;;7375461;19;20208;-43
2022/01/14 04:48:25;;;;;;;31.02;16.98;;;0.00;82.00;;;;;;7375024;19;20188;-42
2022/01/14 04:50:58;;;;;;;26.10;15.38;;;-0.10;82.10;;;;;;7376917;19;20143;-42
2022/01/14 04:53:31;;;;;;;27.15;15.18;;;-0.10;82.30;;;;;;7374755;19;20123;-43
2022/01/14 04:56:01;;;;;;;26.67;15.60;;;0.00;82.40;;;;;;7379049;19;20147;-43
2022/01/14 04:58:31;;;;;;;29.80;17.73;;;0.10;82.00;;;;;;7373790;19;20557;-43
2022/01/14 05:01:03;;;;;;;30.60;16.58;;;0.10;81.70;;;;;;7372934;19;20136;-43
2022/01/14 05:03:33;;;;;;;28.50;16.88;;;0.00;82.00;;;;;;7371736;19;20144;-43
2022/01/14 05:06:05;;;;;;;25.73;16.50;;;-0.10;82.30;;;;;;7370151;19;20132;-43
2022/01/14 05:08:39;;;;;;;29.75;17.00;;;-0.10;82.60;;;;;;7368909;19;20178;-42
2022/01/14 05:11:24;;;;;;;34.42;16.08;;;-0.10;83.00;;;;;;7366889;19;20150;-42
2022/01/14 05:13:54;;;;;;;34.28;16.52;;;-0.10;83.00;;;;;;7363296;19;20650;-42
2022/01/14 05:16:23;;;;;;;24.30;14.70;;;-0.10;82.80;;;;;;7366543;19;20640;-43
2022/01/14 05:18:53;;;;;;;30.92;16.02;;;-0.10;82.80;;;;;;7375061;19;20529;-43
2022/01/14 05:21:23;;;;;;;31.25;17.17;;;0.00;82.80;;;;;;7367010;19;20147;-43
2022/01/14 05:23:56;;;;;;;24.48;15.25;;;0.00;82.50;;;;;;7370889;19;20136;-43
2022/01/14 05:26:25;;;;;;;25.27;13.23;;;-0.10;82.60;;;;;;7371780;19;20138;-42
2022/01/14 05:28:55;;;;;;;19.27;11.65;;;-0.10;82.80;;;;;;7374201;19;20140;-43
2022/01/14 05:31:43;;;;;;;20.50;13.60;;;0.00;83.10;;;;;;7371584;19;20472;-42
2022/01/14 05:34:12;;;;;;;26.67;14.98;;;0.00;82.60;;;;;;7365969;19;20592;-43
2022/01/14 05:36:45;;;;;;;25.77;14.07;;;0.00;82.50;;;;;;7372330;19;20131;-42
2022/01/14 05:39:20;;;;;;;28.02;14.80;;;0.00;82.60;;;;;;7371956;19;20483;-42
2022/01/14 05:41:49;;;;;;;26.60;14.55;;;0.00;82.40;;;;;;7370285;19;20146;-42
2022/01/14 05:44:19;;;;;;;24.02;13.18;;;0.00;82.30;;;;;;7371170;19;20135;-42
2022/01/14 05:46:49;;;;;;;26.02;13.05;;;0.00;82.40;;;;;;7370587;19;20143;-43
2022/01/14 05:49:19;;;;;;;23.02;13.25;;;0.00;83.40;;;;;;7368417;19;20144;-43
2022/01/14 05:51:49;;;;;;;22.30;12.15;;;0.00;82.50;;;;;;7370448;19;20158;-43
2022/01/14 05:54:22;;;;;;;22.73;13.02;;;0.10;82.40;;;;;;7367795;19;20135;-41
2022/01/14 05:56:52;;;;;;;22.02;12.48;;;0.00;82.40;;;;;;7368971;19;20150;-42
2022/01/14 05:59:22;;;;;;;18.13;12.35;;;0.00;82.60;;;;;;7371271;19;20696;-43
2022/01/14 06:01:51;;;;;;;16.90;11.80;;;0.00;82.90;;;;;;7365112;19;20131;-43
2022/01/14 06:04:21;;;;;;;21.90;11.15;;;0.00;82.80;;;;;;7363629;19;20654;-43
2022/01/14 06:06:51;;;;;;;23.65;12.93;;;0.00;82.50;;;;;;7365140;19;20131;-43
2022/01/14 06:09:23;;;;;;;22.35;11.85;;;0.00;82.70;;;;;;7369481;19;20597;-43
2022/01/14 06:11:53;;;;;;;20.40;11.70;;;0.00;82.30;;;;;;7358711;19;20186;-45
2022/01/14 06:14:25;;;;;;;22.85;13.02;;;0.00;82.40;;;;;;7363310;19;20131;-42
2022/01/14 06:16:54;;;;;;;18.35;10.50;;;0.00;82.00;;;;;;7365918;19;20490;-43
2022/01/14 06:19:27;;;;;;;21.88;12.27;;;0.00;82.00;;;;;;7363492;19;20159;-43
2022/01/14 06:21:56;;;;;;;14.52;10.27;;;-0.10;82.10;;;;;;7369118;19;20127;-43
2022/01/14 06:24:29;;;;;;;21.40;12.48;;;-0.10;82.20;;;;;;7376314;19;20132;-43
2022/01/14 06:27:01;;;;;;;14.82;10.10;;;-0.10;82.50;;;;;;7380746;19;20131;-43
2022/01/14 06:29:30;;;;;;;18.08;11.98;;;-0.10;82.40;;;;;;7372143;19;20619;-43
2022/01/14 06:32:00;;;;;;;18.27;12.15;;;0.00;82.10;;;;;;7364622;19;20223;-43
2022/01/14 06:34:32;;;;;;;24.65;14.40;;;0.00;81.70;;;;;;7374330;19;20515;-43
2022/01/14 06:37:02;;;;;;;24.42;13.27;;;0.00;81.50;;;;;;7375809;19;20178;-43
2022/01/14 06:39:35;;;;;;;19.02;11.75;;;-0.10;81.40;;;;;;7374725;19;20139;-43
2022/01/14 06:42:05;;;;;;;19.85;12.50;;;-0.10;81.60;;;;;;7374486;19;20546;-43
2022/01/14 06:44:34;;;;;;;20.30;11.18;;;0.00;81.90;;;;;;7376270;19;20128;-44
2022/01/14 06:47:04;;;;;;;27.48;13.32;;;0.00;81.70;;;;;;7378871;19;20594;-43
2022/01/14 06:49:33;;;;;;;22.73;10.50;;;0.10;81.40;;;;;;7377981;19;20167;-43
2022/01/14 06:52:03;;;;;;;12.60;8.13;;;0.10;81.30;;;;;;7379936;19;20156;-42
2022/01/14 06:54:35;;;;;;;18.20;10.00;;;0.00;81.50;;;;;;7377553;19;20136;-43
2022/01/14 06:57:05;;;;;;;17.00;11.90;;;0.00;81.30;;;;;;7379786;19;20126;-43
2022/01/14 06:59:35;;;;;;;18.15;10.48;;;0.00;81.50;;;;;;7373863;19;20143;-43
2022/01/14 07:02:05;;;;;;;16.77;10.93;;;0.00;81.60;;;;;;7381424;19;20131;-42
2022/01/14 07:04:37;;;;;;;19.52;11.52;;;-0.10;81.70;;;;;;7374434;19;20721;-43
2022/01/14 07:07:07;;;;;;;14.43;8.57;;;-0.10;81.60;;;;;;7380068;19;20740;-42
2022/01/14 07:09:56;;;;;;;14.27;9.23;;;-0.10;81.60;;;;;;7375870;19;20154;-43
2022/01/14 07:12:26;;;;;;;18.30;8.93;;;-0.10;81.50;;;;;;7372803;19;20595;-43
2022/01/14 07:14:56;;;;;;;20.00;9.25;;;-0.10;81.30;;;;;;7376565;19;20123;-43
2022/01/14 07:17:30;;;;;;;19.23;8.63;;;0.00;81.10;;;;;;7379071;19;20131;-43
2022/01/14 07:20:05;;;;;;;14.60;9.05;;;0.00;82.20;;;;;;7380963;19;20124;-43
2022/01/14 07:22:35;;;;;;;13.52;7.97;;;0.00;81.50;;;;;;7379278;19;20840;-43
2022/01/14 07:25:08;;;;;;;14.07;8.95;;;0.00;81.30;;;;;;7376710;19;20227;-43
2022/01/14 07:27:38;;;;;;;11.98;7.53;;;-0.10;81.20;;;;;;7378668;19;20135;-44
2022/01/14 07:30:10;;;;;;;10.63;7.35;;;-0.10;81.60;;;;;;7376656;19;20239;-44
2022/01/14 07:32:42;;;;;;;10.57;7.57;;;0.00;81.60;;;;;;7374302;19;20139;-42
2022/01/14 07:35:12;;;;;;;12.77;9.27;;;0.00;81.10;;;;;;7374656;19;20498;-40
2022/01/14 07:37:41;;;;;;;14.13;9.43;;;0.10;81.10;;;;;;7375612;19;20131;-42
2022/01/14 07:40:18;;;;;;;17.15;9.68;;;0.10;81.10;;;;;;7377458;19;20135;-32
2022/01/14 07:42:48;;;;;;;15.40;8.63;;;0.00;81.30;;;;;;7377711;19;20141;-32
2022/01/14 07:45:19;;;;;;;9.88;7.43;;;0.00;81.50;;;;;;7378257;19;20143;-32
2022/01/14 07:47:49;;;;;;;8.98;7.45;;;0.00;81.10;;;;;;7380108;19;20499;-32
2022/01/14 07:50:18;;;;;;;14.38;8.45;;;0.00;81.30;;;;;;7376838;19;20600;-32
2022/01/14 07:52:48;;;;;;;23.05;12.50;;;0.50;81.90;;;;;;7374131;19;20164;-32
2022/01/14 07:55:20;;;;;;;17.23;11.07;;;0.00;81.20;;;;;;7375140;19;20147;-32
2022/01/14 07:57:52;;;;;;;13.48;9.38;;;0.00;80.90;;;;;;7378980;19;20127;-32
2022/01/14 08:00:21;;;;;;;13.48;8.80;;;0.10;81.10;;;;;;7378819;19;20139;-32
2022/01/14 08:02:52;;;;;;;12.57;9.02;;;0.10;80.90;;;;;;7376861;19;20195;-32
2022/01/14 08:05:22;;;;;;;13.88;8.32;;;0.10;81.20;;;;;;7363550;19;20144;-32
2022/01/14 08:07:53;;;;;;;15.73;9.60;;;0.10;81.10;;;;;;7368276;19;20462;-32
2022/01/14 08:10:25;;;;;;;20.27;10.57;;;0.10;81.10;;;;;;7367351;19;20579;-44
2022/01/14 08:12:55;;;;;;;13.30;9.15;;;0.00;81.30;;;;;;7365310;19;20901;-42
2022/01/14 08:15:25;;;;;;;15.88;9.15;;;0.00;81.40;;;;;;7372927;19;20134;-41
2022/01/14 08:17:56;;;;;;;16.70;10.00;;;0.00;82.20;;;;;;7378038;19;20598;-41
2022/01/14 08:20:28;;;;;;;15.15;9.00;;;0.20;81.40;;;;;;7371335;19;20527;-42
2022/01/14 08:22:58;;;;;;;18.52;11.57;;;0.30;80.70;;;;;;7373174;19;20158;-41
2022/01/14 08:25:31;;;;;;;17.95;10.15;;;0.30;81.40;;;;;;7376726;19;20607;-41
2022/01/14 08:28:00;;;;;;;14.23;10.02;;;0.40;81.80;;;;;;7370118;19;20132;-41
2022/01/14 08:30:30;;;;;;;15.95;10.50;;;0.50;80.70;;;;;;7365842;19;20145;-42
2022/01/14 08:32:59;;;;;;;14.15;9.95;;;0.50;80.00;;;;;;7376735;19;20136;-42
2022/01/14 08:35:32;;;;;;;13.85;9.93;;;0.50;79.80;;;;;;7373821;19;20127;-42
2022/01/14 08:38:01;;;;;;;16.92;10.20;;;0.40;80.40;;;;;;7375016;19;20123;-41
2022/01/14 08:40:33;;;;;;;14.77;9.52;;;0.50;80.30;;;;;;7375885;19;20146;-41
2022/01/14 08:43:03;;;;;;;15.02;10.00;;;0.30;81.70;;;;;;7378526;19;20678;-44
2022/01/14 08:45:38;;;;;;;16.05;9.15;;;0.40;81.50;;;;;;7381172;19;20849;-41
2022/01/14 08:48:08;;;;;;;15.68;10.05;;;0.50;80.80;;;;;;7369844;19;21419;-41
2022/01/14 08:50:40;;;;;;;13.98;9.88;;;0.60;80.60;;;;;;7382083;19;20134;-42
2022/01/14 08:53:13;;;;;;;15.93;9.85;;;0.70;80.60;;;;;;7370983;19;20162;-42
2022/01/14 08:55:45;;;;;;;17.88;9.57;;;0.80;80.10;;;;;;7372162;19;20135;-42
2022/01/14 08:58:15;;;;;;;14.73;10.27;;;1.00;80.00;;;;;;7373627;19;20504;-42
2022/01/14 09:00:44;;;;;;;17.10;10.25;;;1.10;79.10;;;;;;7374000;19;20538;-42
2022/01/14 09:03:14;;;;;;;18.23;10.60;;;1.20;78.60;;;;;;7378483;19;20565;-42
2022/01/14 09:05:44;;;;;;;19.05;10.77;;;1.20;77.80;;;;;;7377696;19;20124;-42
2022/01/14 09:08:13;;;;;;;13.20;9.18;;;1.30;77.50;;;;;;7375729;19;20527;-41
2022/01/14 09:10:46;;;;;;;12.57;7.70;;;1.40;77.10;;;;;;7366536;19;20155;-33
2022/01/14 09:13:17;;;;;;;14.60;9.88;;;1.60;77.50;;;;;;7370987;19;20144;-32
2022/01/14 09:15:47;;;;;;;15.75;10.32;;;2.60;76.60;;;;;;7367599;19;20617;-32
2022/01/14 09:18:16;;;;;;;12.75;7.97;;;4.70;71.30;;;;;;7367969;19;20139;-33
2022/01/14 09:20:46;;;;;;;11.15;7.60;;;6.80;60.90;;;;;;7372582;19;20644;-33
2022/01/14 09:23:22;;;;;;;10.10;7.32;;;8.00;56.60;;;;;;7372854;19;20147;-33
2022/01/14 09:25:57;;;;;;;11.57;7.65;;;8.60;53.80;;;;;;7375215;19;20776;-33
2022/01/14 09:28:28;;;;;;;10.10;7.67;;;8.80;52.90;;;;;;7375467;19;20128;-33
2022/01/14 09:30:57;;;;;;;9.10;7.13;;;9.30;51.50;;;;;;7373020;19;20379;-33
2022/01/14 09:33:30;;;;;;;13.77;9.00;;;9.40;51.00;;;;;;7379035;19;20372;-34
2022/01/14 09:36:00;;;;;;;10.60;8.37;;;10.40;49.10;;;;;;7379101;19;20788;-34
2022/01/14 09:38:32;;;;;;;18.23;10.90;;;11.00;47.80;;;;;;7375710;19;20657;-34
2022/01/14 09:41:04;;;;;;;10.83;8.93;;;11.20;47.40;;;;;;7376884;19;20376;-34
2022/01/14 09:43:36;;;;;;;11.23;8.80;;;;;;;;;;7378831;19;20373;-34
2022/01/14 09:46:08;;;;;;;11.90;9.30;;;12.90;44.00;;;;;;7379504;19;20929;-34
2022/01/14 09:48:38;;;;;;;10.17;9.17;;;13.30;41.80;;;;;;7371849;19;20383;-34
2022/01/14 09:51:09;;;;;;;9.30;8.40;;;12.00;42.50;;;;;;7374108;19;20379;-33
2022/01/14 09:53:38;;;;;;;10.53;9.43;;;10.70;45.00;;;;;;7372330;19;20932;-33
2022/01/14 09:56:16;;;;;;;11.47;9.30;;;9.50;48.40;;;;;;7371306;19;20387;-33
2022/01/14 09:58:47;;;;;;;12.97;9.70;;;8.10;51.80;;;;;;7372793;19;20729;-33
2022/01/14 10:01:18;;;;;;;12.97;9.90;;;8.40;53.20;;;;;;7375399;19;20413;-33
2022/01/14 10:03:56;;;;;;;12.27;10.30;;;10.00;50.10;;;;;;7376176;19;20439;-33
2022/01/14 10:06:44;;;;;;;13.17;9.50;;;11.50;46.20;;;;;;7374394;19;20773;-34
2022/01/14 10:09:17;;;;;;;14.27;10.70;;;11.00;43.70;;;;;;7373472;19;20384;-33
2022/01/14 10:12:03;;;;;;;14.67;11.20;;;9.70;46.60;;;;;;7367523;19;20424;-33
2022/01/14 10:14:34;;;;;;;13.13;11.20;;;8.40;49.40;;;;;;7372500;19;20376;-33
2022/01/14 10:17:07;;;;;;;16.53;12.00;;;7.60;51.10;;;;;;7372030;19;20379;-33
2022/01/14 10:19:42;;;;;;;13.53;9.83;;;7.00;52.70;;;;;;7370916;19;20397;-42
2022/01/14 10:22:27;;;;;;;14.77;10.87;;;6.40;54.90;;;;;;7373424;19;20415;-42
2022/01/14 10:24:59;;;;;;;18.50;11.40;;;6.10;56.20;;;;;;7371801;19;20964;-42
2022/01/14 10:27:38;;;;;;;15.25;11.57;;;5.80;57.70;;;;;;7371100;19;21032;-42
2022/01/14 10:30:15;;;;;;;16.63;13.18;;;5.50;58.20;;;;;;7372987;19;20629;-43
2022/01/14 10:32:47;;;;;;;18.65;15.13;;;5.50;58.50;;;;;;7372921;19;20202;-42
2022/01/14 10:35:18;;;;;;;17.10;12.50;;;5.40;58.20;;;;;;7375434;19;20224;-42
2022/01/14 10:37:50;;;;;;;23.98;13.02;;;5.30;58.90;;;;;;7373782;19;20132;-42
2022/01/14 10:40:23;;;;;;;16.92;12.18;;;5.20;59.20;;;;;;7374635;19;20622;-42
2022/01/14 10:43:03;;;;;;;19.90;11.90;;;5.10;59.60;;;;;;7373514;19;20120;-42
2022/01/14 10:45:33;;;;;;;18.75;12.80;;;5.10;60.70;;;;;;7370963;19;20138;-42
2022/01/14 10:48:05;;;;;;;21.60;12.13;;;5.00;60.20;;;;;;7371511;19;20143;-42
2022/01/14 10:50:40;;;;;;;17.33;13.15;;;5.10;60.10;;;;;;7371773;19;20123;-32
2022/01/14 10:53:14;;;;;;;19.70;12.27;;;5.10;60.60;;;;;;7373634;19;20219;-32
2022/01/14 10:55:47;;;;;;;16.48;11.90;;;5.00;61.70;;;;;;7370342;19;20212;-33
2022/01/14 10:58:26;;;;;;;25.55;15.38;;;5.10;61.20;;;;;;7369831;19;20131;-33
2022/01/14 11:00:59;;;;;;;21.63;14.90;;;5.10;61.00;;;;;;7373384;19;20131;-33
2022/01/14 11:03:38;;;;;;;26.45;16.55;;;5.10;61.00;;;;;;7373784;19;20621;-32
2022/01/14 11:06:23;;;;;;;26.17;15.80;;;5.20;60.90;;;;;;7371606;19;20182;-32
2022/01/14 11:08:59;;;;;;;25.35;16.33;;;5.20;60.70;;;;;;7370954;19;20166;-32
2022/01/14 11:11:30;;;;;;;21.55;15.05;;;5.30;60.40;;;;;;7371817;19;20155;-33
2022/01/14 11:14:02;;;;;;;22.25;14.68;;;7.50;59.80;;;;;;7379078;19;20147;-33
2022/01/14 11:16:32;;;;;;;21.57;15.17;;;10.60;52.00;;;;;;7375486;19;20131;-33
2022/01/14 11:19:03;;;;;;;23.80;15.43;;;13.30;46.40;;;;;;7381163;19;20368;-33
2022/01/14 11:24:16;;;;;;;20.63;14.13;;;16.60;38.10;;;;;;7383288;19;20372;-34
2022/01/14 11:26:47;;;;;;;20.50;15.40;;;17.50;36.40;;;;;;7380675;19;20752;-34
2022/01/14 11:29:24;;;;;;;19.33;15.53;;;17.80;35.70;;;;;;7381461;19;20951;-34
2022/01/14 11:31:59;;;;;;;20.43;15.40;;;18.40;34.60;;;;;;7386197;19;20393;-34
2022/01/14 11:34:36;;;;;;;17.23;14.53;;;18.90;33.50;;;;;;7385718;19;20364;-34
2022/01/14 11:37:07;;;;;;;18.80;15.23;;;19.40;32.60;;;;;;7376773;19;20376;-34
2022/01/14 11:39:42;;;;;;;18.20;16.30;;;19.00;32.20;;;;;;7384076;19;20485;-36
2022/01/14 11:42:14;;;;;;;20.43;15.30;;;17.60;33.80;;;;;;7380590;19;20411;-34
2022/01/14 11:44:58;;;;;;;18.43;15.60;;;16.80;35.10;;;;;;7381963;19;20384;-35
2022/01/14 11:47:51;;;;;;;17.70;15.90;;;16.60;35.40;;;;;;7381541;19;20384;-34
2022/01/14 11:50:48;;;;;;;17.60;15.40;;;15.70;35.80;;;;;;7380585;19;20380;-43
2022/01/14 11:53:44;;;;;;;17.90;15.00;;;13.50;38.70;;;;;;7382143;19;20387;-43
2022/01/14 11:56:43;;;;;;;20.83;16.47;;;12.30;41.20;;;;;;7379199;19;20372;-43
2022/01/14 11:59:51;;;;;;;17.20;15.40;;;11.60;42.40;;;;;;7367395;19;20957;-43
2022/01/14 12:02:41;;;;;;;20.60;15.73;;;10.50;44.60;;;;;;7380825;19;20420;-43
2022/01/14 12:05:20;;;;;;;19.93;16.33;;;9.70;47.80;;;;;;7380359;19;20373;-43
2022/01/14 12:08:23;;;;;;;22.10;15.50;;;9.80;48.50;;;;;;7384556;19;20368;-43
2022/01/14 12:10:55;;;;;;;22.13;16.00;;;10.60;47.40;;;;;;7374991;19;21633;-43
2022/01/14 12:13:36;;;;;;;18.67;14.67;;;11.60;45.70;;;;;;7381913;19;20693;-43
2022/01/14 12:16:36;;;;;;;18.07;14.47;;;12.70;43.50;;;;;;7380890;19;20924;-43
2022/01/14 12:19:14;;;;;;;20.43;16.37;;;12.10;43.40;;;;;;7380208;19;20960;-43
2022/01/14 12:22:00;;;;;;;17.53;13.83;;;14.10;42.80;;;;;;7378119;19;20412;-43
2022/01/14 12:24:58;;;;;;;24.33;17.70;;;16.00;38.90;;;;;;7369066;19;20883;-43
2022/01/14 12:27:45;;;;;;;26.00;16.80;;;14.60;37.40;;;;;;7374743;19;20455;-42
2022/01/14 12:30:21;;;;;;;24.40;16.90;;;12.80;40.60;;;;;;7369638;19;20376;-44
2022/01/14 12:32:58;;;;;;;30.10;15.90;;;11.60;42.80;;;;;;7374059;19;20395;-42
2022/01/14 12:35:32;;;;;;;21.50;16.47;;;10.50;45.90;;;;;;7371546;19;20825;-43
2022/01/14 12:38:02;;;;;;;23.63;16.63;;;9.80;48.40;;;;;;7375045;19;20376;-43
2022/01/14 12:40:40;;;;;;;25.07;16.40;;;9.20;49.90;;;;;;7374548;19;20387;-43
2022/01/14 12:43:13;;;;;;;24.17;16.67;;;9.00;50.20;;;;;;7369853;19;20919;-42
2022/01/14 12:46:02;;;;;;;24.97;15.10;;;8.80;50.70;;;;;;7369231;19;20487;-43
2022/01/14 12:48:46;;;;;;;18.93;14.43;;;8.60;51.00;;;;;;7377298;19;20945;-42
2022/01/14 12:51:20;;;;;;;24.97;16.17;;;8.40;52.30;;;;;;7374153;19;20364;-42
2022/01/14 12:53:56;;;;;;;18.13;14.40;;;8.10;52.90;;;;;;7374166;19;20395;-42
2022/01/14 12:56:28;;;;;;;20.80;15.03;;;8.00;53.40;;;;;;7362137;19;20384;-42
2022/01/14 12:59:02;;;;;;;21.07;14.17;;;7.90;53.70;;;;;;7371308;19;20360;-42
2022/01/14 13:01:37;;;;;;;24.30;16.00;;;7.70;53.90;;;;;;7367979;19;20766;-42
2022/01/14 13:04:12;;;;;;;18.97;14.60;;;7.70;54.00;;;;;;7365749;19;20375;-42
2022/01/14 13:06:48;;;;;;;24.70;15.23;;;7.70;54.20;;;;;;7367286;19;20383;-42
2022/01/14 13:09:20;;;;;;;21.75;15.55;;;7.60;54.60;;;;;;7370229;19;20146;-42
2022/01/14 13:11:55;;;;;;;24.63;15.38;;;7.60;54.70;;;;;;7364991;19;21005;-42
2022/01/14 13:14:30;;;;;;;23.80;15.75;;;7.60;55.00;;;;;;7372256;19;20146;-42
2022/01/14 13:17:03;;;;;;;23.80;14.45;;;7.50;55.40;;;;;;7342540;19;20150;-43
2022/01/14 13:19:39;;;;;;;19.25;14.35;;;7.50;55.80;;;;;;7349406;19;20588;-43
2022/01/14 13:22:12;;;;;;;20.38;13.65;;;7.40;56.00;;;;;;7376639;19;20131;-42
2022/01/14 13:24:44;;;;;;;17.58;14.18;;;7.40;56.00;;;;;;7377853;19;20159;-43
2022/01/14 13:27:16;;;;;;;20.83;13.25;;;7.30;56.70;;;;;;7372391;19;20150;-42
2022/01/14 13:29:48;;;;;;;26.13;15.93;;;7.20;56.90;;;;;;7380751;19;20139;-33